Strona główna
METAR-TAF:

METAR-TAF

Lotnisko :

Port lotniczy Niamey

Niamey, Niger

Szerokość geograficzna: 13-29N, Długość geograficzna: 002-10E, wysokość: 223 m

Aktualna obserwacja pogody

Raport powstał 1 godzina i 2 minut temu, godzina 11:00 UTC
Wiatr 12 kt od wschód
Temperatura 30°C
Wilgotność 7%
Ciśnienie 1013 hPa
Widzialność 10 km lub więcej
Brak chmur poniżej 1500 m i brak chmur cumulonimbus

METAR: DRRN 161100Z 10012KT CAVOK 30/M09 Q1013 NOSIG

czas: 13:02 (12:02 UTC)

Prognoza

Raport powstał 1 godzina i 2 minut temu, godzina 11:00 UTC
Prognoza ważna od 16 godzina 12 UTC do 17 godzina 18 UTC
Wiatr 8 kt od wschód
Widzialność: 8000 m
Przejściowo
od 16 godzina 17 UTC do 16 godzina 20 UTC
Widzialność: 3500 m
pył
Przejściowo
od 17 godzina 06 UTC do 17 godzina 09 UTC
Widzialność: 3500 m
pył

TAF: DRRN 161100Z 1612/1718 08008KT 8000 NSC TEMPO 1617/1620 3500 DU TEMPO 1706/1709 3500 DU

Obserwacja i prognoza pogody dla ponad 4000 lotnisk (raport METAR i TAF).

Dostępne stacje oznaczono żółtymi i czerwonymi punktami na mapie.

Najedź kursorem aby zobaczyć nazwę stacji.

Kliknij aby zobaczyć obserwacje i prognozy pogody.

Aby zmienić mapę: kliknij na zielony przycisk z czarnym krzyżykiem, aby powiększyć; na zielony przycisk z myślnikiem, aby pomniejszyć; na zielone strzałki, aby przejść do map sąsiednich.


METAR-TAF: